Cochise, AZ (85606)

5:31 AM MST on April 30, 2017 (GMT -0700)
Richland Ranchettes | | Change Station

Elev 4288 ft 32.00 °N, 109.89 °W | Updated 4 seconds ago

Clear
Clear
35.1 °F
Feels Like 35 °F
N
2.7
Wind Variable Wind from South

Today
High -- | Low -- °F
--% Chance of Precip.
Yesterday
High -- | Low -- °F
Precip. -- in
Pressure 30.03 in
Visibility 10.0 miles
Clouds Clear
Windchill 35 °F
Dew Point 17 °F
Humidity 47%
Rainfall 0.00 in
Snow Depth Not available.
5:34 AM 6:59 PM
Waxing Crescent, 22% visible
METAR KFHU 301158Z AUTO 22004KT 10SM CLR 08/M09 A3014 RMK AO2 SLP167 T00821094 10114 20062 55001
Pressure 30.03 in
Visibility 10.0 miles
Clouds Clear
Windchill 35 °F
Dew Point 17 °F
Humidity 47%
Rainfall 0.00 in
Snow Depth Not available.
5:34 AM 6:59 PM
Waxing Crescent, 22% visible
METAR KFHU 301158Z AUTO 22004KT 10SM CLR 08/M09 A3014 RMK AO2 SLP167 T00821094 10114 20062 55001

Get Severe Weather Alerts

Thanks for signing up!

Be on the lookout for a verification email in your inbox.

You'll start receiving the daily forecast at 8 AM.

×

10-Day Weather Forecast

Almanac

Astronomy

Apr. 30, 2017 Rise Set
Actual Time
Civil Twilight
Nautical Twilight
Astronomical Twilight
Moon
Length of Visible Light
Length of Day
Tomorrow will be .
, % of the Moon is Illuminated

Today's Extremes

State Highs State Lows

Community

WunderPhotos

WunderBlog® & News

Nearby

Air Quality

  Air Quality AQ Index Pollutant
Not available.

Snow Depth

Station Depth Elevation

Earthquake Activity

City Distance Mag. Time & Date
Minimum magnitude displayed is 2.5.

Coastal Water Temperatures

Place Temperature

Stations

Nearby Weather Stations

Station Location Temp. Windchill Dew Point Humidity Wind Precip. Elev Updated Type
                   

Watches & Warnings

There are currently no watches in effect.